sensor_id;sensor_type;location;lat;lon;timestamp;temperature;humidity
8093;DHT22;4089;52.420;13.334;2023-05-07T00:01:28;9.50;99.90
8093;DHT22;4089;52.420;13.334;2023-05-07T00:03:55;9.50;99.90
8093;DHT22;4089;52.420;13.334;2023-05-07T00:06:22;9.60;99.90
8093;DHT22;4089;52.420;13.334;2023-05-07T00:08:49;9.60;99.90
8093;DHT22;4089;52.420;13.334;2023-05-07T00:11:16;9.60;99.90
8093;DHT22;4089;52.420;13.334;2023-05-07T00:13:42;9.60;99.90
8093;DHT22;4089;52.420;13.334;2023-05-07T00:16:09;9.50;99.90
8093;DHT22;4089;52.420;13.334;2023-05-07T00:18:36;9.50;99.90
8093;DHT22;4089;52.420;13.334;2023-05-07T00:21:03;9.50;99.90
8093;DHT22;4089;52.420;13.334;2023-05-07T00:23:30;9.50;99.90
8093;DHT22;4089;52.420;13.334;2023-05-07T00:25:56;9.50;99.90
8093;DHT22;4089;52.420;13.334;2023-05-07T00:28:23;9.60;99.90
8093;DHT22;4089;52.420;13.334;2023-05-07T00:30:50;9.60;99.90
8093;DHT22;4089;52.420;13.334;2023-05-07T00:33:16;9.60;99.90
8093;DHT22;4089;52.420;13.334;2023-05-07T00:35:44;9.50;99.90
8093;DHT22;4089;52.420;13.334;2023-05-07T00:38:11;9.50;99.90
8093;DHT22;4089;52.420;13.334;2023-05-07T00:40:37;9.60;99.90
8093;DHT22;4089;52.420;13.334;2023-05-07T00:43:04;9.70;99.90
8093;DHT22;4089;52.420;13.334;2023-05-07T00:45:31;9.70;99.90
8093;DHT22;4089;52.420;13.334;2023-05-07T00:48:00;9.70;99.90
8093;DHT22;4089;52.420;13.334;2023-05-07T00:50:28;9.70;99.90
8093;DHT22;4089;52.420;13.334;2023-05-07T00:52:56;9.70;99.90
8093;DHT22;4089;52.420;13.334;2023-05-07T00:55:23;9.70;99.90
8093;DHT22;4089;52.420;13.334;2023-05-07T00:57:51;9.70;99.90
8093;DHT22;4089;52.420;13.334;2023-05-07T01:00:18;9.60;99.90
8093;DHT22;4089;52.420;13.334;2023-05-07T01:02:45;9.60;99.90
8093;DHT22;4089;52.420;13.334;2023-05-07T01:05:16;9.70;99.90
8093;DHT22;4089;52.420;13.334;2023-05-07T01:07:44;9.70;99.90
8093;DHT22;4089;52.420;13.334;2023-05-07T01:10:12;9.80;99.90
8093;DHT22;4089;52.420;13.334;2023-05-07T01:12:40;9.80;99.90
8093;DHT22;4089;52.420;13.334;2023-05-07T01:15:08;9.80;99.90
8093;DHT22;4089;52.420;13.334;2023-05-07T01:17:36;9.70;99.90
8093;DHT22;4089;52.420;13.334;2023-05-07T01:20:07;9.70;99.90
8093;DHT22;4089;52.420;13.334;2023-05-07T01:22:37;9.80;99.90
8093;DHT22;4089;52.420;13.334;2023-05-07T01:25:07;9.80;99.90
8093;DHT22;4089;52.420;13.334;2023-05-07T01:27:35;9.80;99.90
8093;DHT22;4089;52.420;13.334;2023-05-07T01:30:06;9.80;99.90
8093;DHT22;4089;52.420;13.334;2023-05-07T01:33:02;9.80;99.90
8093;DHT22;4089;52.420;13.334;2023-05-07T01:35:35;9.70;99.90
8093;DHT22;4089;52.420;13.334;2023-05-07T01:38:03;9.80;99.90
8093;DHT22;4089;52.420;13.334;2023-05-07T01:40:31;9.80;99.90
8093;DHT22;4089;52.420;13.334;2023-05-07T01:42:58;9.80;99.90
8093;DHT22;4089;52.420;13.334;2023-05-07T01:45:25;9.80;99.90
8093;DHT22;4089;52.420;13.334;2023-05-07T01:47:53;9.70;99.90
8093;DHT22;4089;52.420;13.334;2023-05-07T01:50:20;9.70;99.90
8093;DHT22;4089;52.420;13.334;2023-05-07T01:52:50;9.70;99.90
8093;DHT22;4089;52.420;13.334;2023-05-07T01:55:17;9.70;99.90
8093;DHT22;4089;52.420;13.334;2023-05-07T01:57:44;9.70;99.90
8093;DHT22;4089;52.420;13.334;2023-05-07T02:00:11;9.70;99.90
8093;DHT22;4089;52.420;13.334;2023-05-07T02:02:39;9.70;99.90
8093;DHT22;4089;52.420;13.334;2023-05-07T02:05:06;9.80;99.90
8093;DHT22;4089;52.420;13.334;2023-05-07T02:07:33;9.80;99.90
8093;DHT22;4089;52.420;13.334;2023-05-07T02:10:00;9.70;99.90
8093;DHT22;4089;52.420;13.334;2023-05-07T02:12:26;9.60;99.90
8093;DHT22;4089;52.420;13.334;2023-05-07T02:14:53;9.50;99.90
8093;DHT22;4089;52.420;13.334;2023-05-07T02:17:20;9.60;99.90
8093;DHT22;4089;52.420;13.334;2023-05-07T02:19:47;9.60;99.90
8093;DHT22;4089;52.420;13.334;2023-05-07T02:22:14;9.60;99.90
8093;DHT22;4089;52.420;13.334;2023-05-07T02:24:41;9.50;99.90
8093;DHT22;4089;52.420;13.334;2023-05-07T02:27:08;9.50;99.90
8093;DHT22;4089;52.420;13.334;2023-05-07T02:29:35;9.50;99.90
8093;DHT22;4089;52.420;13.334;2023-05-07T02:32:02;9.50;99.90
8093;DHT22;4089;52.420;13.334;2023-05-07T02:34:29;9.50;99.90
8093;DHT22;4089;52.420;13.334;2023-05-07T02:36:56;9.50;99.90
8093;DHT22;4089;52.420;13.334;2023-05-07T02:39:23;9.50;99.90
8093;DHT22;4089;52.420;13.334;2023-05-07T02:41:49;9.50;99.90
8093;DHT22;4089;52.420;13.334;2023-05-07T02:44:16;9.50;99.90
8093;DHT22;4089;52.420;13.334;2023-05-07T02:46:43;9.50;99.90
8093;DHT22;4089;52.420;13.334;2023-05-07T02:49:10;9.50;99.90
8093;DHT22;4089;52.420;13.334;2023-05-07T02:51:37;9.50;99.90
8093;DHT22;4089;52.420;13.334;2023-05-07T02:54:04;9.60;99.90
8093;DHT22;4089;52.420;13.334;2023-05-07T02:56:31;9.50;99.90
8093;DHT22;4089;52.420;13.334;2023-05-07T02:58:57;9.40;99.90
8093;DHT22;4089;52.420;13.334;2023-05-07T03:01:25;9.50;99.90
8093;DHT22;4089;52.420;13.334;2023-05-07T03:03:51;9.50;99.90
8093;DHT22;4089;52.420;13.334;2023-05-07T03:06:18;9.50;99.90
8093;DHT22;4089;52.420;13.334;2023-05-07T03:08:45;9.60;99.90
8093;DHT22;4089;52.420;13.334;2023-05-07T03:11:12;9.60;99.90
8093;DHT22;4089;52.420;13.334;2023-05-07T03:13:39;9.60;99.90
8093;DHT22;4089;52.420;13.334;2023-05-07T03:16:06;9.50;99.90
8093;DHT22;4089;52.420;13.334;2023-05-07T03:18:33;9.50;99.90
8093;DHT22;4089;52.420;13.334;2023-05-07T03:21:00;9.60;99.90
8093;DHT22;4089;52.420;13.334;2023-05-07T03:23:27;9.60;99.90
8093;DHT22;4089;52.420;13.334;2023-05-07T03:25:53;9.60;99.90
8093;DHT22;4089;52.420;13.334;2023-05-07T03:28:20;9.50;99.90
8093;DHT22;4089;52.420;13.334;2023-05-07T03:30:47;9.50;99.90
8093;DHT22;4089;52.420;13.334;2023-05-07T03:33:13;9.50;99.90
8093;DHT22;4089;52.420;13.334;2023-05-07T03:35:40;9.50;99.90
8093;DHT22;4089;52.420;13.334;2023-05-07T03:38:07;9.50;99.90
8093;DHT22;4089;52.420;13.334;2023-05-07T03:40:34;9.50;99.90
8093;DHT22;4089;52.420;13.334;2023-05-07T03:43:01;9.50;99.90
8093;DHT22;4089;52.420;13.334;2023-05-07T03:45:28;9.50;99.90
8093;DHT22;4089;52.420;13.334;2023-05-07T03:47:54;9.50;99.90
8093;DHT22;4089;52.420;13.334;2023-05-07T03:50:21;9.60;99.90
8093;DHT22;4089;52.420;13.334;2023-05-07T03:52:48;9.60;99.90
8093;DHT22;4089;52.420;13.334;2023-05-07T03:55:15;9.60;99.90
8093;DHT22;4089;52.420;13.334;2023-05-07T03:57:42;9.60;99.90
8093;DHT22;4089;52.420;13.334;2023-05-07T04:00:09;9.50;99.90
8093;DHT22;4089;52.420;13.334;2023-05-07T04:02:36;9.50;99.90
8093;DHT22;4089;52.420;13.334;2023-05-07T04:05:03;9.50;99.90
8093;DHT22;4089;52.420;13.334;2023-05-07T04:07:30;9.50;99.90
8093;DHT22;4089;52.420;13.334;2023-05-07T04:09:57;9.60;99.90
8093;DHT22;4089;52.420;13.334;2023-05-07T04:12:24;9.60;99.90
8093;DHT22;4089;52.420;13.334;2023-05-07T04:14:51;9.60;99.90
8093;DHT22;4089;52.420;13.334;2023-05-07T04:17:17;9.40;99.90
8093;DHT22;4089;52.420;13.334;2023-05-07T04:19:44;9.40;99.90
8093;DHT22;4089;52.420;13.334;2023-05-07T04:22:12;9.50;99.90
8093;DHT22;4089;52.420;13.334;2023-05-07T04:24:39;9.50;99.90
8093;DHT22;4089;52.420;13.334;2023-05-07T04:27:06;9.40;99.90
8093;DHT22;4089;52.420;13.334;2023-05-07T04:29:32;9.30;99.90
8093;DHT22;4089;52.420;13.334;2023-05-07T04:31:59;9.40;99.90
8093;DHT22;4089;52.420;13.334;2023-05-07T04:34:27;9.40;99.90
8093;DHT22;4089;52.420;13.334;2023-05-07T04:36:53;9.40;99.90
8093;DHT22;4089;52.420;13.334;2023-05-07T04:39:20;9.40;99.90
8093;DHT22;4089;52.420;13.334;2023-05-07T04:41:47;9.40;99.90
8093;DHT22;4089;52.420;13.334;2023-05-07T04:44:14;9.40;99.90
8093;DHT22;4089;52.420;13.334;2023-05-07T04:46:41;9.40;99.90
8093;DHT22;4089;52.420;13.334;2023-05-07T04:49:08;9.40;99.90
8093;DHT22;4089;52.420;13.334;2023-05-07T04:51:34;9.50;99.90
8093;DHT22;4089;52.420;13.334;2023-05-07T04:54:01;9.40;99.90
8093;DHT22;4089;52.420;13.334;2023-05-07T04:56:28;9.50;99.90
8093;DHT22;4089;52.420;13.334;2023-05-07T04:58:56;9.50;99.90
8093;DHT22;4089;52.420;13.334;2023-05-07T05:01:23;9.50;99.90
8093;DHT22;4089;52.420;13.334;2023-05-07T05:03:50;9.50;99.90
8093;DHT22;4089;52.420;13.334;2023-05-07T05:06:17;9.60;99.90
8093;DHT22;4089;52.420;13.334;2023-05-07T05:08:43;9.70;99.90
8093;DHT22;4089;52.420;13.334;2023-05-07T05:11:10;9.70;99.90
8093;DHT22;4089;52.420;13.334;2023-05-07T05:13:37;9.70;99.90
8093;DHT22;4089;52.420;13.334;2023-05-07T05:16:04;9.70;99.90
8093;DHT22;4089;52.420;13.334;2023-05-07T05:18:33;9.80;99.90
8093;DHT22;4089;52.420;13.334;2023-05-07T05:20:59;9.80;99.90
8093;DHT22;4089;52.420;13.334;2023-05-07T05:23:27;9.90;99.90
8093;DHT22;4089;52.420;13.334;2023-05-07T05:25:57;9.90;99.90
8093;DHT22;4089;52.420;13.334;2023-05-07T05:28:24;9.80;99.90
8093;DHT22;4089;52.420;13.334;2023-05-07T05:30:51;9.80;99.90
8093;DHT22;4089;52.420;13.334;2023-05-07T05:33:18;9.80;99.90
8093;DHT22;4089;52.420;13.334;2023-05-07T05:35:44;9.80;99.90
8093;DHT22;4089;52.420;13.334;2023-05-07T05:38:11;9.90;99.90
8093;DHT22;4089;52.420;13.334;2023-05-07T05:40:38;9.90;99.90
8093;DHT22;4089;52.420;13.334;2023-05-07T05:43:05;10.00;99.90
8093;DHT22;4089;52.420;13.334;2023-05-07T05:45:32;10.00;99.90
8093;DHT22;4089;52.420;13.334;2023-05-07T05:47:59;10.00;99.90
8093;DHT22;4089;52.420;13.334;2023-05-07T05:50:26;10.00;99.90
8093;DHT22;4089;52.420;13.334;2023-05-07T05:52:53;10.10;99.90
8093;DHT22;4089;52.420;13.334;2023-05-07T05:55:20;10.10;99.90
8093;DHT22;4089;52.420;13.334;2023-05-07T05:57:48;10.30;99.90
8093;DHT22;4089;52.420;13.334;2023-05-07T06:00:15;10.40;99.90
8093;DHT22;4089;52.420;13.334;2023-05-07T06:02:42;10.40;99.90
8093;DHT22;4089;52.420;13.334;2023-05-07T06:05:09;10.40;99.90
8093;DHT22;4089;52.420;13.334;2023-05-07T06:07:36;10.50;99.90
8093;DHT22;4089;52.420;13.334;2023-05-07T06:10:03;10.50;99.90
8093;DHT22;4089;52.420;13.334;2023-05-07T06:12:30;10.60;99.90
8093;DHT22;4089;52.420;13.334;2023-05-07T06:14:57;10.70;99.90
8093;DHT22;4089;52.420;13.334;2023-05-07T06:17:24;10.90;99.90
8093;DHT22;4089;52.420;13.334;2023-05-07T06:19:52;10.90;99.90
8093;DHT22;4089;52.420;13.334;2023-05-07T06:22:19;10.80;99.90
8093;DHT22;4089;52.420;13.334;2023-05-07T06:24:46;10.70;99.90
8093;DHT22;4089;52.420;13.334;2023-05-07T06:27:13;10.70;99.90
8093;DHT22;4089;52.420;13.334;2023-05-07T06:29:39;10.60;99.90
8093;DHT22;4089;52.420;13.334;2023-05-07T06:32:13;10.70;99.90
8093;DHT22;4089;52.420;13.334;2023-05-07T06:34:41;10.80;99.90
8093;DHT22;4089;52.420;13.334;2023-05-07T06:37:08;10.90;99.90
8093;DHT22;4089;52.420;13.334;2023-05-07T06:39:35;10.90;99.90
8093;DHT22;4089;52.420;13.334;2023-05-07T06:42:01;10.90;99.90
8093;DHT22;4089;52.420;13.334;2023-05-07T06:44:29;11.00;99.90
8093;DHT22;4089;52.420;13.334;2023-05-07T06:46:56;10.90;99.90
8093;DHT22;4089;52.420;13.334;2023-05-07T06:49:23;11.00;99.90
8093;DHT22;4089;52.420;13.334;2023-05-07T06:51:50;11.00;99.90
8093;DHT22;4089;52.420;13.334;2023-05-07T06:54:17;11.00;99.90
8093;DHT22;4089;52.420;13.334;2023-05-07T06:56:43;11.20;99.90
8093;DHT22;4089;52.420;13.334;2023-05-07T06:59:10;11.10;99.90
8093;DHT22;4089;52.420;13.334;2023-05-07T07:01:37;11.20;99.90
8093;DHT22;4089;52.420;13.334;2023-05-07T07:04:04;11.30;99.90
8093;DHT22;4089;52.420;13.334;2023-05-07T07:06:31;11.40;99.90
8093;DHT22;4089;52.420;13.334;2023-05-07T07:08:59;11.40;99.90
8093;DHT22;4089;52.420;13.334;2023-05-07T07:11:26;11.30;99.90
8093;DHT22;4089;52.420;13.334;2023-05-07T07:13:53;11.20;99.90
8093;DHT22;4089;52.420;13.334;2023-05-07T07:16:21;11.20;99.90
8093;DHT22;4089;52.420;13.334;2023-05-07T07:18:48;11.30;99.90
8093;DHT22;4089;52.420;13.334;2023-05-07T07:21:15;11.40;99.90
8093;DHT22;4089;52.420;13.334;2023-05-07T07:23:42;11.50;99.90
8093;DHT22;4089;52.420;13.334;2023-05-07T07:26:09;11.60;99.90
8093;DHT22;4089;52.420;13.334;2023-05-07T07:28:42;11.70;99.90
8093;DHT22;4089;52.420;13.334;2023-05-07T07:31:11;11.60;99.90
8093;DHT22;4089;52.420;13.334;2023-05-07T07:33:38;11.60;99.90
8093;DHT22;4089;52.420;13.334;2023-05-07T07:36:06;11.60;99.90
8093;DHT22;4089;52.420;13.334;2023-05-07T07:38:33;11.60;99.90
8093;DHT22;4089;52.420;13.334;2023-05-07T07:41:01;11.60;99.90
8093;DHT22;4089;52.420;13.334;2023-05-07T07:43:28;11.60;99.90
8093;DHT22;4089;52.420;13.334;2023-05-07T07:45:55;11.70;99.90
8093;DHT22;4089;52.420;13.334;2023-05-07T07:48:22;12.00;99.90
8093;DHT22;4089;52.420;13.334;2023-05-07T07:50:49;12.30;99.90
8093;DHT22;4089;52.420;13.334;2023-05-07T07:53:17;12.50;99.90
8093;DHT22;4089;52.420;13.334;2023-05-07T07:55:45;12.70;99.90
8093;DHT22;4089;52.420;13.334;2023-05-07T07:58:12;12.60;99.90
8093;DHT22;4089;52.420;13.334;2023-05-07T08:00:38;12.60;99.90
8093;DHT22;4089;52.420;13.334;2023-05-07T08:03:05;12.50;99.90
8093;DHT22;4089;52.420;13.334;2023-05-07T08:05:34;12.60;99.90
8093;DHT22;4089;52.420;13.334;2023-05-07T08:08:00;12.50;99.90
8093;DHT22;4089;52.420;13.334;2023-05-07T08:10:27;12.60;99.90
8093;DHT22;4089;52.420;13.334;2023-05-07T08:12:54;12.70;99.90
8093;DHT22;4089;52.420;13.334;2023-05-07T08:15:21;12.80;99.90
8093;DHT22;4089;52.420;13.334;2023-05-07T08:17:48;12.80;99.90
8093;DHT22;4089;52.420;13.334;2023-05-07T08:20:15;12.90;99.90
8093;DHT22;4089;52.420;13.334;2023-05-07T08:22:41;13.20;99.90
8093;DHT22;4089;52.420;13.334;2023-05-07T08:25:09;13.40;99.90
8093;DHT22;4089;52.420;13.334;2023-05-07T08:27:36;13.50;99.90
8093;DHT22;4089;52.420;13.334;2023-05-07T08:30:04;13.60;99.90
8093;DHT22;4089;52.420;13.334;2023-05-07T08:32:30;13.70;99.90
8093;DHT22;4089;52.420;13.334;2023-05-07T08:34:57;13.80;99.90
8093;DHT22;4089;52.420;13.334;2023-05-07T08:37:24;13.80;99.90
8093;DHT22;4089;52.420;13.334;2023-05-07T08:39:51;13.80;99.90
8093;DHT22;4089;52.420;13.334;2023-05-07T08:42:18;14.00;99.90
8093;DHT22;4089;52.420;13.334;2023-05-07T08:44:48;14.10;99.90
8093;DHT22;4089;52.420;13.334;2023-05-07T08:47:20;14.10;99.90
8093;DHT22;4089;52.420;13.334;2023-05-07T08:49:49;14.20;99.90
8093;DHT22;4089;52.420;13.334;2023-05-07T08:52:17;13.90;99.90
8093;DHT22;4089;52.420;13.334;2023-05-07T08:54:46;13.90;99.90
8093;DHT22;4089;52.420;13.334;2023-05-07T08:57:13;14.10;99.90
8093;DHT22;4089;52.420;13.334;2023-05-07T08:59:40;14.00;99.90
8093;DHT22;4089;52.420;13.334;2023-05-07T09:02:09;14.00;99.90
8093;DHT22;4089;52.420;13.334;2023-05-07T09:04:36;14.00;99.90
8093;DHT22;4089;52.420;13.334;2023-05-07T09:07:03;14.00;99.90
8093;DHT22;4089;52.420;13.334;2023-05-07T09:09:34;13.90;99.90
8093;DHT22;4089;52.420;13.334;2023-05-07T09:12:01;13.80;99.90
8093;DHT22;4089;52.420;13.334;2023-05-07T09:14:30;13.90;99.90
8093;DHT22;4089;52.420;13.334;2023-05-07T09:16:57;13.90;99.90
8093;DHT22;4089;52.420;13.334;2023-05-07T09:19:25;14.00;99.90
8093;DHT22;4089;52.420;13.334;2023-05-07T09:21:59;14.10;99.90
8093;DHT22;4089;52.420;13.334;2023-05-07T09:24:27;14.10;99.90
8093;DHT22;4089;52.420;13.334;2023-05-07T09:26:57;14.20;99.90
8093;DHT22;4089;52.420;13.334;2023-05-07T09:29:25;14.30;99.90
8093;DHT22;4089;52.420;13.334;2023-05-07T09:31:51;14.20;99.90
8093;DHT22;4089;52.420;13.334;2023-05-07T09:34:18;14.30;99.90
8093;DHT22;4089;52.420;13.334;2023-05-07T09:36:45;14.50;99.90
8093;DHT22;4089;52.420;13.334;2023-05-07T09:39:12;14.60;99.90
8093;DHT22;4089;52.420;13.334;2023-05-07T09:41:49;14.50;99.90
8093;DHT22;4089;52.420;13.334;2023-05-07T09:44:16;14.40;99.90
8093;DHT22;4089;52.420;13.334;2023-05-07T09:46:44;14.40;99.90
8093;DHT22;4089;52.420;13.334;2023-05-07T09:49:20;14.60;99.90
8093;DHT22;4089;52.420;13.334;2023-05-07T09:51:49;14.60;99.90
8093;DHT22;4089;52.420;13.334;2023-05-07T09:54:18;14.50;99.90
8093;DHT22;4089;52.420;13.334;2023-05-07T09:56:45;14.40;99.90
8093;DHT22;4089;52.420;13.334;2023-05-07T09:59:13;14.60;99.90
8093;DHT22;4089;52.420;13.334;2023-05-07T10:01:42;14.70;99.90
8093;DHT22;4089;52.420;13.334;2023-05-07T10:04:10;14.70;99.90
8093;DHT22;4089;52.420;13.334;2023-05-07T10:06:38;14.80;99.90
8093;DHT22;4089;52.420;13.334;2023-05-07T10:09:05;15.10;99.90
8093;DHT22;4089;52.420;13.334;2023-05-07T10:11:33;15.20;99.90
8093;DHT22;4089;52.420;13.334;2023-05-07T10:14:02;15.30;99.90
8093;DHT22;4089;52.420;13.334;2023-05-07T10:16:32;15.10;99.90
8093;DHT22;4089;52.420;13.334;2023-05-07T10:19:06;15.10;99.90
8093;DHT22;4089;52.420;13.334;2023-05-07T10:21:36;15.40;99.90
8093;DHT22;4089;52.420;13.334;2023-05-07T10:24:19;15.70;99.90
8093;DHT22;4089;52.420;13.334;2023-05-07T10:26:49;15.90;99.90
8093;DHT22;4089;52.420;13.334;2023-05-07T10:29:29;16.00;99.90
8093;DHT22;4089;52.420;13.334;2023-05-07T10:34:44;16.00;99.90
8093;DHT22;4089;52.420;13.334;2023-05-07T10:37:12;16.30;99.90
8093;DHT22;4089;52.420;13.334;2023-05-07T10:39:40;16.40;99.90
8093;DHT22;4089;52.420;13.334;2023-05-07T10:42:11;16.30;99.90
8093;DHT22;4089;52.420;13.334;2023-05-07T10:44:38;16.20;99.90
8093;DHT22;4089;52.420;13.334;2023-05-07T10:52:31;16.00;99.90
8093;DHT22;4089;52.420;13.334;2023-05-07T10:55:19;16.30;99.90
8093;DHT22;4089;52.420;13.334;2023-05-07T10:57:48;16.40;99.90
8093;DHT22;4089;52.420;13.334;2023-05-07T11:03:04;15.90;99.90
8093;DHT22;4089;52.420;13.334;2023-05-07T11:05:34;15.90;99.90
8093;DHT22;4089;52.420;13.334;2023-05-07T11:08:04;16.10;99.90
8093;DHT22;4089;52.420;13.334;2023-05-07T11:10:51;16.10;99.90
8093;DHT22;4089;52.420;13.334;2023-05-07T11:13:40;16.10;99.90
8093;DHT22;4089;52.420;13.334;2023-05-07T11:16:23;16.30;99.90
8093;DHT22;4089;52.420;13.334;2023-05-07T11:18:52;16.20;99.90
8093;DHT22;4089;52.420;13.334;2023-05-07T11:21:35;16.10;99.90
8093;DHT22;4089;52.420;13.334;2023-05-07T11:24:03;16.10;99.90
8093;DHT22;4089;52.420;13.334;2023-05-07T11:29:28;16.20;99.90
8093;DHT22;4089;52.420;13.334;2023-05-07T11:31:55;16.30;99.90
8093;DHT22;4089;52.420;13.334;2023-05-07T11:34:24;16.00;99.90
8093;DHT22;4089;52.420;13.334;2023-05-07T11:36:52;15.80;99.90
8093;DHT22;4089;52.420;13.334;2023-05-07T11:39:27;15.90;99.90
8093;DHT22;4089;52.420;13.334;2023-05-07T11:41:54;16.10;99.90
8093;DHT22;4089;52.420;13.334;2023-05-07T11:44:21;16.20;99.90
8093;DHT22;4089;52.420;13.334;2023-05-07T11:46:48;16.60;99.90
8093;DHT22;4089;52.420;13.334;2023-05-07T11:49:15;16.60;99.90
8093;DHT22;4089;52.420;13.334;2023-05-07T11:51:42;16.30;99.90
8093;DHT22;4089;52.420;13.334;2023-05-07T11:54:09;16.10;99.90
8093;DHT22;4089;52.420;13.334;2023-05-07T11:56:37;16.00;99.90
8093;DHT22;4089;52.420;13.334;2023-05-07T11:59:05;16.00;99.90
8093;DHT22;4089;52.420;13.334;2023-05-07T12:01:35;16.10;99.90
8093;DHT22;4089;52.420;13.334;2023-05-07T12:04:03;16.40;99.90
8093;DHT22;4089;52.420;13.334;2023-05-07T12:06:36;16.80;99.90
8093;DHT22;4089;52.420;13.334;2023-05-07T12:09:04;17.30;99.90
8093;DHT22;4089;52.420;13.334;2023-05-07T12:11:33;17.50;99.90
8093;DHT22;4089;52.420;13.334;2023-05-07T12:14:00;17.70;99.90
8093;DHT22;4089;52.420;13.334;2023-05-07T12:16:27;17.50;99.40
8093;DHT22;4089;52.420;13.334;2023-05-07T12:18:55;17.60;99.80
8093;DHT22;4089;52.420;13.334;2023-05-07T12:21:23;17.60;99.70
8093;DHT22;4089;52.420;13.334;2023-05-07T12:23:50;17.70;99.40
8093;DHT22;4089;52.420;13.334;2023-05-07T12:26:19;17.80;99.20
8093;DHT22;4089;52.420;13.334;2023-05-07T12:28:47;17.40;97.70
8093;DHT22;4089;52.420;13.334;2023-05-07T12:31:14;17.10;98.20
8093;DHT22;4089;52.420;13.334;2023-05-07T12:33:42;16.90;98.20
8093;DHT22;4089;52.420;13.334;2023-05-07T12:36:12;16.80;98.30
8093;DHT22;4089;52.420;13.334;2023-05-07T12:38:40;16.70;99.00
8093;DHT22;4089;52.420;13.334;2023-05-07T12:41:09;16.70;98.50
8093;DHT22;4089;52.420;13.334;2023-05-07T12:43:36;16.60;97.70
8093;DHT22;4089;52.420;13.334;2023-05-07T12:46:06;16.80;98.80
8093;DHT22;4089;52.420;13.334;2023-05-07T12:48:33;16.90;97.30
8093;DHT22;4089;52.420;13.334;2023-05-07T12:51:00;17.00;98.20
8093;DHT22;4089;52.420;13.334;2023-05-07T12:53:29;17.00;97.90
8093;DHT22;4089;52.420;13.334;2023-05-07T12:55:58;16.90;97.80
8093;DHT22;4089;52.420;13.334;2023-05-07T12:58:28;17.00;99.90
8093;DHT22;4089;52.420;13.334;2023-05-07T13:00:57;17.10;99.90
8093;DHT22;4089;52.420;13.334;2023-05-07T13:03:32;17.30;99.40
8093;DHT22;4089;52.420;13.334;2023-05-07T13:06:04;17.00;97.50
8093;DHT22;4089;52.420;13.334;2023-05-07T13:08:33;16.90;99.10
8093;DHT22;4089;52.420;13.334;2023-05-07T13:11:02;17.00;99.30
8093;DHT22;4089;52.420;13.334;2023-05-07T13:13:34;17.20;97.60
8093;DHT22;4089;52.420;13.334;2023-05-07T13:16:03;17.30;99.70
8093;DHT22;4089;52.420;13.334;2023-05-07T13:18:31;17.40;97.20
8093;DHT22;4089;52.420;13.334;2023-05-07T13:20:59;17.30;98.00
8093;DHT22;4089;52.420;13.334;2023-05-07T13:23:27;17.20;99.10
8093;DHT22;4089;52.420;13.334;2023-05-07T13:25:54;17.10;98.40
8093;DHT22;4089;52.420;13.334;2023-05-07T13:28:26;17.10;98.20
8093;DHT22;4089;52.420;13.334;2023-05-07T13:30:53;17.20;99.80
8093;DHT22;4089;52.420;13.334;2023-05-07T13:33:21;17.30;97.20
8093;DHT22;4089;52.420;13.334;2023-05-07T13:35:48;17.20;96.90
8093;DHT22;4089;52.420;13.334;2023-05-07T13:38:15;17.20;96.70
8093;DHT22;4089;52.420;13.334;2023-05-07T13:40:42;17.10;96.90
8093;DHT22;4089;52.420;13.334;2023-05-07T13:43:09;17.20;98.50
8093;DHT22;4089;52.420;13.334;2023-05-07T13:45:37;17.20;96.90
8093;DHT22;4089;52.420;13.334;2023-05-07T13:48:04;17.40;96.40
8093;DHT22;4089;52.420;13.334;2023-05-07T13:50:31;17.70;97.80
8093;DHT22;4089;52.420;13.334;2023-05-07T13:52:58;17.70;96.70
8093;DHT22;4089;52.420;13.334;2023-05-07T13:55:25;17.30;96.10
8093;DHT22;4089;52.420;13.334;2023-05-07T13:57:59;17.30;97.20
8093;DHT22;4089;52.420;13.334;2023-05-07T14:00:27;17.90;98.20
8093;DHT22;4089;52.420;13.334;2023-05-07T14:02:55;18.10;96.70
8093;DHT22;4089;52.420;13.334;2023-05-07T14:05:22;18.70;97.10
8093;DHT22;4089;52.420;13.334;2023-05-07T14:07:56;19.30;95.70
8093;DHT22;4089;52.420;13.334;2023-05-07T14:10:24;19.80;93.30
8093;DHT22;4089;52.420;13.334;2023-05-07T14:12:50;20.10;91.90
8093;DHT22;4089;52.420;13.334;2023-05-07T14:15:17;20.50;92.00
8093;DHT22;4089;52.420;13.334;2023-05-07T14:17:44;20.80;87.80
8093;DHT22;4089;52.420;13.334;2023-05-07T14:20:12;21.10;90.40
8093;DHT22;4089;52.420;13.334;2023-05-07T14:22:40;21.60;89.90
8093;DHT22;4089;52.420;13.334;2023-05-07T14:25:07;21.80;85.50
8093;DHT22;4089;52.420;13.334;2023-05-07T14:27:34;22.50;85.40
8093;DHT22;4089;52.420;13.334;2023-05-07T14:30:01;22.50;76.70
8093;DHT22;4089;52.420;13.334;2023-05-07T14:32:28;22.40;75.00
8093;DHT22;4089;52.420;13.334;2023-05-07T14:34:55;22.50;75.20
8093;DHT22;4089;52.420;13.334;2023-05-07T14:37:21;22.30;71.50
8093;DHT22;4089;52.420;13.334;2023-05-07T14:39:48;22.10;72.70
8093;DHT22;4089;52.420;13.334;2023-05-07T14:42:17;22.50;72.80
8093;DHT22;4089;52.420;13.334;2023-05-07T14:44:44;22.50;69.40
8093;DHT22;4089;52.420;13.334;2023-05-07T14:47:12;22.60;69.10
8093;DHT22;4089;52.420;13.334;2023-05-07T14:49:39;22.80;65.60
8093;DHT22;4089;52.420;13.334;2023-05-07T14:52:07;22.70;65.00
8093;DHT22;4089;52.420;13.334;2023-05-07T14:54:37;22.60;63.90
8093;DHT22;4089;52.420;13.334;2023-05-07T14:57:05;22.70;66.80
8093;DHT22;4089;52.420;13.334;2023-05-07T14:59:33;23.00;67.20
8093;DHT22;4089;52.420;13.334;2023-05-07T15:02:00;22.80;61.90
8093;DHT22;4089;52.420;13.334;2023-05-07T15:04:31;23.00;60.60
8093;DHT22;4089;52.420;13.334;2023-05-07T15:06:57;22.80;59.30
8093;DHT22;4089;52.420;13.334;2023-05-07T15:09:24;22.70;61.00
8093;DHT22;4089;52.420;13.334;2023-05-07T15:11:51;22.60;63.20
8093;DHT22;4089;52.420;13.334;2023-05-07T15:14:18;22.30;62.00
8093;DHT22;4089;52.420;13.334;2023-05-07T15:16:45;22.00;63.80
8093;DHT22;4089;52.420;13.334;2023-05-07T15:19:12;21.60;61.20
8093;DHT22;4089;52.420;13.334;2023-05-07T15:21:41;21.00;63.60
8093;DHT22;4089;52.420;13.334;2023-05-07T15:24:08;19.90;65.90
8093;DHT22;4089;52.420;13.334;2023-05-07T15:26:36;18.90;66.90
8093;DHT22;4089;52.420;13.334;2023-05-07T15:29:03;18.20;69.90
8093;DHT22;4089;52.420;13.334;2023-05-07T15:31:34;17.90;69.70
8093;DHT22;4089;52.420;13.334;2023-05-07T15:34:01;17.60;71.40
8093;DHT22;4089;52.420;13.334;2023-05-07T15:36:28;17.50;73.50
8093;DHT22;4089;52.420;13.334;2023-05-07T15:38:55;17.40;77.00
8093;DHT22;4089;52.420;13.334;2023-05-07T15:41:22;17.50;78.10
8093;DHT22;4089;52.420;13.334;2023-05-07T15:43:50;17.60;77.60
8093;DHT22;4089;52.420;13.334;2023-05-07T15:46:22;17.70;76.20
8093;DHT22;4089;52.420;13.334;2023-05-07T15:48:53;17.70;78.70
8093;DHT22;4089;52.420;13.334;2023-05-07T15:51:20;17.50;78.10
8093;DHT22;4089;52.420;13.334;2023-05-07T15:53:48;17.40;79.50
8093;DHT22;4089;52.420;13.334;2023-05-07T15:56:17;17.20;79.00
8093;DHT22;4089;52.420;13.334;2023-05-07T15:58:44;17.20;79.60
8093;DHT22;4089;52.420;13.334;2023-05-07T16:01:11;17.40;80.90
8093;DHT22;4089;52.420;13.334;2023-05-07T16:03:39;17.20;78.70
8093;DHT22;4089;52.420;13.334;2023-05-07T16:06:06;17.10;80.70
8093;DHT22;4089;52.420;13.334;2023-05-07T16:08:33;17.10;80.50
8093;DHT22;4089;52.420;13.334;2023-05-07T16:11:00;16.90;79.30